Asukamaru — JG5536 — position and weather

sailwx.info

Track history (hours):
 
Tides and Currents Weather Stations Pressure Air Temp Water Temp Dewpoint Dewpoint Depression Visibility Wind Speed Wind Dir Waves Ship Positions

Asukamaru

Last reported at 2015-May-06 15:33 UTC. Time now 2015-May-06 16:31 UTC.
Position N 35°38' E 139°46'.

Length 31 m; draft 3 m.

Type: Tug. MMSI: 431001145.

Date/timePositionNaut miles runAvg speedWind from/ knotsBaromVisibWave heightAir tempDewpointWater temp
2015-May-06 15:33N 35°38' E 139°46'0 0.0
2015-May-06 14:34N 35°38' E 139°45'0 0.0
2015-May-06 13:33N 35°38' E 139°45'0 0.0
2015-May-06 12:34N 35°38' E 139°45'0 0.0
2015-May-06 11:34N 35°38' E 139°45'0 0.0
2015-May-06 10:34N 35°38' E 139°45'0 0.0
2015-May-06 09:33N 35°38' E 139°45'0 0.0
2015-May-06 08:33N 35°38' E 139°45'2 2.4
2015-May-06 07:33N 35°36' E 139°47'0 0.3
2015-May-06 06:33N 35°36' E 139°47'2 2.2
2015-May-06 05:33N 35°38' E 139°45'0 0.0
2015-May-06 04:33N 35°38' E 139°45'0 0.0
2015-May-06 03:33N 35°38' E 139°45'0 0.0
2015-May-06 02:32N 35°38' E 139°45'0 0.0
2015-May-06 01:33N 35°38' E 139°45'0 0.0
2015-May-06 00:33N 35°38' E 139°45'0 0.0
2015-May-05 23:34N 35°38' E 139°45'2 1.5
2015-May-05 22:34N 35°37' E 139°46'1 0.6
2015-May-05 21:33N 35°36' E 139°47'2 1.9
2015-May-05 20:33N 35°38' E 139°45'0 0.0
2015-May-05 19:33N 35°38' E 139°45'0 0.0
2015-May-05 18:32N 35°38' E 139°45'0 0.0
2015-May-05 17:34N 35°38' E 139°45'0 0.0
2015-May-05 16:33N 35°38' E 139°45'0 0.0
2015-May-05 15:33N 35°38' E 139°45'0 0.0
2015-May-05 14:34N 35°38' E 139°45'0 0.0
2015-May-05 13:33N 35°38' E 139°45'0 0.0
2015-May-05 12:33N 35°38' E 139°45'0 0.0
2015-May-05 11:33N 35°38' E 139°45'0 0.0
2015-May-05 10:33N 35°38' E 139°45'3 3.1
2015-May-05 09:33N 35°35' E 139°47'2 2.2
2015-May-05 08:33N 35°37' E 139°46'1 0.9
2015-May-05 07:32N 35°38' E 139°45'0 0.0
2015-May-05 06:34N 35°38' E 139°45'0 0.0
2015-May-05 05:34N 35°38' E 139°45'0 0.0
2015-May-05 04:33N 35°38' E 139°45'0 0.0
2015-May-05 03:34N 35°38' E 139°45'0 0.0
2015-May-05 02:34N 35°38' E 139°45'0 0.0
2015-May-05 01:33N 35°38' E 139°45'0 0.0
2015-May-05 00:33N 35°38' E 139°45'0 0.1
2015-May-04 23:33N 35°38' E 139°46'3 2.8
2015-May-04 22:34N 35°36' E 139°47'2 2.4
2015-May-04 21:33N 35°34' E 139°49'4 3.8
2015-May-04 20:33N 35°37' E 139°46'1 1.4
2015-May-04 19:33N 35°38' E 139°45'0 0.0
2015-May-04 18:33N 35°38' E 139°45'0 0.0
2015-May-04 17:33N 35°38' E 139°45'0 0.0
2015-May-04 16:34N 35°38' E 139°45'0 0.0
2015-May-04 15:33N 35°38' E 139°45'0 0.0
2015-May-04 14:34N 35°38' E 139°45'0 0.0
2015-May-04 13:33N 35°38' E 139°45'0 0.0
2015-May-04 12:33N 35°38' E 139°45'0 0.0
2015-May-04 11:33N 35°38' E 139°45'0 0.0
2015-May-04 10:33N 35°38' E 139°45'0 0.0
2015-May-04 09:33N 35°38' E 139°45'0 0.0
2015-May-04 08:33N 35°38' E 139°45'0 0.0
2015-May-04 07:33N 35°38' E 139°45'0 0.0
2015-May-04 06:33N 35°38' E 139°45'0 0.0
2015-May-04 05:34N 35°38' E 139°45'0 0.0
2015-May-04 04:33N 35°38' E 139°45'0 0.0
2015-May-04 03:33N 35°38' E 139°45'0 0.0
2015-May-04 02:33N 35°38' E 139°45'0 0.0
2015-May-04 01:33N 35°38' E 139°45'0 0.0
2015-May-04 00:33N 35°38' E 139°45'0 0.0
2015-May-03 23:34N 35°38' E 139°45'0 0.0
2015-May-03 22:34N 35°38' E 139°45'0 0.0
2015-May-03 21:33N 35°38' E 139°45'0 0.0
2015-May-03 20:33N 35°38' E 139°45'0 0.0
2015-May-03 19:32N 35°38' E 139°45'0 0.0
2015-May-03 18:33N 35°38' E 139°45'0 0.0
2015-May-03 17:33N 35°38' E 139°45'0 0.0
2015-May-03 16:33N 35°38' E 139°45'0 0.0
2015-May-03 15:34N 35°38' E 139°45'0 0.0
2015-May-03 14:33N 35°38' E 139°45'0 0.0
2015-May-03 13:33N 35°38' E 139°45'0 0.0
2015-May-03 12:33N 35°38' E 139°45'0 0.0
2015-May-03 11:33N 35°38' E 139°45'0 0.0
2015-May-03 10:34N 35°38' E 139°45'0 0.0
2015-May-03 09:33N 35°38' E 139°45'0 0.0
2015-May-03 08:34N 35°38' E 139°46'0 0.0
2015-May-03 07:33N 35°38' E 139°45'0 0.0
2015-May-03 06:34N 35°38' E 139°45'0 0.0
2015-May-03 05:33N 35°38' E 139°45'0 0.0
2015-May-03 04:34N 35°38' E 139°45'0 0.0
2015-May-03 03:33N 35°38' E 139°45'0 0.0
2015-May-03 02:34N 35°38' E 139°45'0 0.0
2015-May-03 01:34N 35°38' E 139°45'0 0.0
2015-May-03 00:33N 35°38' E 139°45'0 0.0
2015-May-02 23:33N 35°38' E 139°45'0 0.0
2015-May-02 22:33N 35°38' E 139°45'0 0.0
2015-May-02 21:33N 35°38' E 139°45'0 0.0
2015-May-02 20:33N 35°38' E 139°45'0 0.0
2015-May-02 19:34N 35°38' E 139°45'0 0.0
2015-May-02 18:33N 35°38' E 139°45'0 0.0
2015-May-02 17:34N 35°38' E 139°45'0 0.0
2015-May-02 16:33N 35°38' E 139°45'0 0.0
2015-May-02 15:34N 35°38' E 139°45'0 0.0
2015-May-02 14:33N 35°38' E 139°45'0 0.0
2015-May-02 13:33N 35°38' E 139°45'0 0.0
2015-May-02 12:33N 35°38' E 139°45'0 0.0
2015-May-02 11:33N 35°38' E 139°45'0 0.0
2015-May-02 10:33N 35°38' E 139°45'0 0.0
2015-May-02 09:34N 35°38' E 139°45'0 0.0
2015-May-02 08:34N 35°38' E 139°45'0 0.0
2015-May-02 07:33N 35°38' E 139°45'0 0.0
2015-May-02 06:34N 35°38' E 139°45'0 0.0
2015-May-02 05:33N 35°38' E 139°45'0 0.0
2015-May-02 04:33N 35°38' E 139°45'0 0.0
2015-May-02 03:33N 35°38' E 139°45'2 1.8
2015-May-02 02:34N 35°37' E 139°46'0 0.2
2015-May-02 01:34N 35°37' E 139°46'2 1.6
2015-May-02 00:33N 35°38' E 139°45'0 0.0
2015-May-01 23:34N 35°38' E 139°45'0 0.0
2015-May-01 22:33N 35°38' E 139°45'0 0.0
2015-May-01 21:34N 35°38' E 139°45'0 0.0
2015-May-01 20:34N 35°38' E 139°45'0 0.0
2015-May-01 19:33N 35°38' E 139°45'0 0.0
2015-May-01 18:33N 35°38' E 139°45'0 0.0
2015-May-01 17:33N 35°38' E 139°45'0 0.0
2015-May-01 16:33N 35°38' E 139°45'0 0.0
2015-May-01 15:33N 35°38' E 139°45'0 0.0
2015-May-01 14:33N 35°38' E 139°45'0 0.0
2015-May-01 13:34N 35°38' E 139°45'2 2.2
2015-May-01 12:34N 35°36' E 139°47'1 0.7
2015-May-01 11:32N 35°36' E 139°48'0 0.2
2015-May-01 10:33N 35°36' E 139°47'1 0.8
2015-May-01 09:34N 35°35' E 139°47'1 0.8
2015-May-01 08:33N 35°36' E 139°46'2 2.2
2015-May-01 07:33N 35°38' E 139°45'0 0.0
2015-May-01 06:33N 35°38' E 139°45'0 0.0
2015-May-01 05:34N 35°38' E 139°45'0 0.0
2015-May-01 02:24N 35°38' E 139°45'0 0.0
2015-May-01 01:34N 35°38' E 139°45'0 0.0
2015-May-01 00:34N 35°38' E 139°45'0 0.0
2015-Apr-30 23:33N 35°38' E 139°45'2 1.6
2015-Apr-30 22:33N 35°37' E 139°46'4 3.8
2015-Apr-30 21:33N 35°34' E 139°49'3 3.2
2015-Apr-30 20:31N 35°37' E 139°47'2 1.9
2015-Apr-30 19:34N 35°38' E 139°45'0 0.0
2015-Apr-30 18:34N 35°38' E 139°45'0 0.0
2015-Apr-30 17:34N 35°38' E 139°45'0 0.0
2015-Apr-30 16:33N 35°38' E 139°45'0 0.0
2015-Apr-30 15:34N 35°38' E 139°45'0 0.0
2015-Apr-30 14:33N 35°38' E 139°45'0 0.0
2015-Apr-30 13:33N 35°38' E 139°45'0 0.0
2015-Apr-30 12:33N 35°38' E 139°45'0 0.0
2015-Apr-30 11:34N 35°38' E 139°45'0 0.0
2015-Apr-30 10:34N 35°38' E 139°45'0 0.0
2015-Apr-30 09:33N 35°38' E 139°45'0 0.0
2015-Apr-30 08:34N 35°38' E 139°45'0 0.0
2015-Apr-30 07:33N 35°38' E 139°45'0 0.0
2015-Apr-30 06:33N 35°38' E 139°45'0 0.0
2015-Apr-30 05:34N 35°38' E 139°45'0 0.0
2015-Apr-30 04:33N 35°38' E 139°45'0 0.0
2015-Apr-30 03:33N 35°38' E 139°45'0 0.0
2015-Apr-30 02:33N 35°38' E 139°45'0 0.0
2015-Apr-30 01:33N 35°38' E 139°45'0 0.0
2015-Apr-30 00:33N 35°38' E 139°45'0 0.0
2015-Apr-29 23:33N 35°38' E 139°46'0 0.0
2015-Apr-29 22:33N 35°38' E 139°45'0 0.0
2015-Apr-29 21:33N 35°38' E 139°45'0 0.0
2015-Apr-29 20:33N 35°38' E 139°45'0 0.0
2015-Apr-29 19:33N 35°38' E 139°45'0 0.0
2015-Apr-29 18:33N 35°38' E 139°45'0 0.0
2015-Apr-29 17:34N 35°38' E 139°45'0 0.0
2015-Apr-29 16:33N 35°38' E 139°45'0 0.0
2015-Apr-29 15:33N 35°38' E 139°45'0 0.0
2015-Apr-29 14:34N 35°38' E 139°45'0 0.0
2015-Apr-29 13:33N 35°38' E 139°45'0 0.0
2015-Apr-29 12:33N 35°38' E 139°45'0 0.0
2015-Apr-29 11:34N 35°38' E 139°45'0 0.0
2015-Apr-29 10:33N 35°38' E 139°45'0 0.0
2015-Apr-29 09:34N 35°38' E 139°45'0 0.0
2015-Apr-29 08:33N 35°38' E 139°45'0 0.0
2015-Apr-29 07:33N 35°38' E 139°45'0 0.0
2015-Apr-29 06:33N 35°38' E 139°45'2 2.3
2015-Apr-29 05:33N 35°36' E 139°47'2 2.3
2015-Apr-29 04:33N 35°38' E 139°45'0 0.0
2015-Apr-29 03:33N 35°38' E 139°45'0 0.0
2015-Apr-29 02:34N 35°38' E 139°45'0 0.0
2015-Apr-29 01:33N 35°38' E 139°45'0 0.0
2015-Apr-29 00:34N 35°38' E 139°45'0 0.0
2015-Apr-28 23:33N 35°38' E 139°45'0 0.5
2015-Apr-28 22:33N 35°38' E 139°46'4 3.9
2015-Apr-28 21:33N 35°35' E 139°48'2 2.3
2015-Apr-28 20:33N 35°36' E 139°46'2 2.2
2015-Apr-28 19:34N 35°38' E 139°45'0 0.0
2015-Apr-28 18:34N 35°38' E 139°45'0 0.0
2015-Apr-28 17:33N 35°38' E 139°45'0 0.0
2015-Apr-28 16:33N 35°38' E 139°45'0 0.0
2015-Apr-28 15:33N 35°38' E 139°45'0 0.0
2015-Apr-28 14:33N 35°38' E 139°45'0 0.0
2015-Apr-28 13:34N 35°38' E 139°45'0 0.0
2015-Apr-28 12:33N 35°38' E 139°45'0 0.0
2015-Apr-28 11:34N 35°38' E 139°45'0 0.0
2015-Apr-28 10:33N 35°38' E 139°45'0 0.0
2015-Apr-28 09:33N 35°38' E 139°45'0 0.0
2015-Apr-28 08:33N 35°38' E 139°45'0 0.0
2015-Apr-28 07:34N 35°38' E 139°45'0 0.0
2015-Apr-28 06:33N 35°38' E 139°45'0 0.0
2015-Apr-28 05:33N 35°38' E 139°45'0 0.0
2015-Apr-28 04:33N 35°38' E 139°45'0 0.2
2015-Apr-28 03:33N 35°38' E 139°46'0 0.4
2015-Apr-28 02:33N 35°39' E 139°46'0 0.0
2015-Apr-28 01:33N 35°39' E 139°46'0 0.3
2015-Apr-28 00:33N 35°38' E 139°45'0 0.0
2015-Apr-27 23:33N 35°38' E 139°45'0 0.0
2015-Apr-27 22:34N 35°38' E 139°45'0 0.0
2015-Apr-27 21:33N 35°38' E 139°45'0 0.0
2015-Apr-27 20:33N 35°38' E 139°45'0 0.0
2015-Apr-27 19:33N 35°38' E 139°45'0 0.0
2015-Apr-27 18:33N 35°38' E 139°45'0 0.0
2015-Apr-27 17:34N 35°38' E 139°45'0 0.0
2015-Apr-27 16:33N 35°38' E 139°45'0 0.0
2015-Apr-27 15:34N 35°38' E 139°45'0 0.0
2015-Apr-27 14:34N 35°38' E 139°45'0 0.0
2015-Apr-27 13:34N 35°38' E 139°45'0 0.0
2015-Apr-27 12:33N 35°38' E 139°45'0 0.0
2015-Apr-27 11:33N 35°38' E 139°45'0 0.0
2015-Apr-27 10:33N 35°38' E 139°45'0 0.0
2015-Apr-27 09:33N 35°38' E 139°45'0 0.0
2015-Apr-27 08:33N 35°38' E 139°45'0 0.3
2015-Apr-27 07:33N 35°38' E 139°46'0 0.3
2015-Apr-27 06:33N 35°38' E 139°45'0 0.0
2015-Apr-27 05:33N 35°38' E 139°45'0 0.0
2015-Apr-27 04:34N 35°38' E 139°45'0 0.0
2015-Apr-27 03:33N 35°38' E 139°45'0 0.0
2015-Apr-27 02:33N 35°38' E 139°45'0 0.0
2015-Apr-27 01:31N 35°38' E 139°45'0 0.0
2015-Apr-27 00:34N 35°38' E 139°45'0 0.0
2015-Apr-26 23:33N 35°38' E 139°45'3 3.1
2015-Apr-26 22:34N 35°35' E 139°47'0 0.3
2015-Apr-26 21:33N 35°35' E 139°47'3 3.2
2015-Apr-26 20:34N 35°38' E 139°45'0 0.0
2015-Apr-26 19:33N 35°38' E 139°45'0 0.0
2015-Apr-26 18:34N 35°38' E 139°45'0 0.0
2015-Apr-26 17:34N 35°38' E 139°45'0 0.0
2015-Apr-26 16:33N 35°38' E 139°45'0 0.0
2015-Apr-26 15:33N 35°38' E 139°45'  
Track history (hours):
 
Tides and Currents Weather Stations Pressure Air Temp Water Temp Dewpoint Dewpoint Depression Visibility Wind Speed Wind Dir Waves Ship Positions

Asukamaru

Last reported at 2015-May-06 15:33 UTC. Time now 2015-May-06 16:31 UTC.
Position N 35°38' E 139°46'.

Length 31 m; draft 3 m.

Type: Tug. MMSI: 431001145.

Date/timePositionNaut miles runAvg speedWind from/ knotsBaromVisibWave heightAir tempDewpointWater temp
2015-May-06 15:33N 35°38' E 139°46'0 0.0
2015-May-06 14:34N 35°38' E 139°45'0 0.0
2015-May-06 13:33N 35°38' E 139°45'0 0.0
2015-May-06 12:34N 35°38' E 139°45'0 0.0
2015-May-06 11:34N 35°38' E 139°45'0 0.0
2015-May-06 10:34N 35°38' E 139°45'0 0.0
2015-May-06 09:33N 35°38' E 139°45'0 0.0
2015-May-06 08:33N 35°38' E 139°45'2 2.4
2015-May-06 07:33N 35°36' E 139°47'0 0.3
2015-May-06 06:33N 35°36' E 139°47'2 2.2
2015-May-06 05:33N 35°38' E 139°45'0 0.0
2015-May-06 04:33N 35°38' E 139°45'0 0.0
2015-May-06 03:33N 35°38' E 139°45'0 0.0
2015-May-06 02:32N 35°38' E 139°45'0 0.0
2015-May-06 01:33N 35°38' E 139°45'0 0.0
2015-May-06 00:33N 35°38' E 139°45'0 0.0
2015-May-05 23:34N 35°38' E 139°45'2 1.5
2015-May-05 22:34N 35°37' E 139°46'1 0.6
2015-May-05 21:33N 35°36' E 139°47'2 1.9
2015-May-05 20:33N 35°38' E 139°45'0 0.0
2015-May-05 19:33N 35°38' E 139°45'0 0.0
2015-May-05 18:32N 35°38' E 139°45'0 0.0
2015-May-05 17:34N 35°38' E 139°45'0 0.0
2015-May-05 16:33N 35°38' E 139°45'0 0.0
2015-May-05 15:33N 35°38' E 139°45'0 0.0
2015-May-05 14:34N 35°38' E 139°45'0 0.0
2015-May-05 13:33N 35°38' E 139°45'0 0.0
2015-May-05 12:33N 35°38' E 139°45'0 0.0
2015-May-05 11:33N 35°38' E 139°45'0 0.0
2015-May-05 10:33N 35°38' E 139°45'3 3.1
2015-May-05 09:33N 35°35' E 139°47'2 2.2
2015-May-05 08:33N 35°37' E 139°46'1 0.9
2015-May-05 07:32N 35°38' E 139°45'0 0.0
2015-May-05 06:34N 35°38' E 139°45'0 0.0
2015-May-05 05:34N 35°38' E 139°45'0 0.0
2015-May-05 04:33N 35°38' E 139°45'0 0.0
2015-May-05 03:34N 35°38' E 139°45'0 0.0
2015-May-05 02:34N 35°38' E 139°45'0 0.0
2015-May-05 01:33N 35°38' E 139°45'0 0.0
2015-May-05 00:33N 35°38' E 139°45'0 0.1
2015-May-04 23:33N 35°38' E 139°46'3 2.8
2015-May-04 22:34N 35°36' E 139°47'2 2.4
2015-May-04 21:33N 35°34' E 139°49'4 3.8
2015-May-04 20:33N 35°37' E 139°46'1 1.4
2015-May-04 19:33N 35°38' E 139°45'0 0.0
2015-May-04 18:33N 35°38' E 139°45'0 0.0
2015-May-04 17:33N 35°38' E 139°45'0 0.0
2015-May-04 16:34N 35°38' E 139°45'0 0.0
2015-May-04 15:33N 35°38' E 139°45'0 0.0
2015-May-04 14:34N 35°38' E 139°45'0 0.0
2015-May-04 13:33N 35°38' E 139°45'0 0.0
2015-May-04 12:33N 35°38' E 139°45'0 0.0
2015-May-04 11:33N 35°38' E 139°45'0 0.0
2015-May-04 10:33N 35°38' E 139°45'0 0.0
2015-May-04 09:33N 35°38' E 139°45'0 0.0
2015-May-04 08:33N 35°38' E 139°45'0 0.0
2015-May-04 07:33N 35°38' E 139°45'0 0.0
2015-May-04 06:33N 35°38' E 139°45'0 0.0
2015-May-04 05:34N 35°38' E 139°45'0 0.0
2015-May-04 04:33N 35°38' E 139°45'0 0.0
2015-May-04 03:33N 35°38' E 139°45'0 0.0
2015-May-04 02:33N 35°38' E 139°45'0 0.0
2015-May-04 01:33N 35°38' E 139°45'0 0.0
2015-May-04 00:33N 35°38' E 139°45'0 0.0
2015-May-03 23:34N 35°38' E 139°45'0 0.0
2015-May-03 22:34N 35°38' E 139°45'0 0.0
2015-May-03 21:33N 35°38' E 139°45'0 0.0
2015-May-03 20:33N 35°38' E 139°45'0 0.0
2015-May-03 19:32N 35°38' E 139°45'0 0.0
2015-May-03 18:33N 35°38' E 139°45'0 0.0
2015-May-03 17:33N 35°38' E 139°45'0 0.0
2015-May-03 16:33N 35°38' E 139°45'0 0.0
2015-May-03 15:34N 35°38' E 139°45'0 0.0
2015-May-03 14:33N 35°38' E 139°45'0 0.0
2015-May-03 13:33N 35°38' E 139°45'0 0.0
2015-May-03 12:33N 35°38' E 139°45'0 0.0
2015-May-03 11:33N 35°38' E 139°45'0 0.0
2015-May-03 10:34N 35°38' E 139°45'0 0.0
2015-May-03 09:33N 35°38' E 139°45'0 0.0
2015-May-03 08:34N 35°38' E 139°46'0 0.0
2015-May-03 07:33N 35°38' E 139°45'0 0.0
2015-May-03 06:34N 35°38' E 139°45'0 0.0
2015-May-03 05:33N 35°38' E 139°45'0 0.0
2015-May-03 04:34N 35°38' E 139°45'0 0.0
2015-May-03 03:33N 35°38' E 139°45'0 0.0
2015-May-03 02:34N 35°38' E 139°45'0 0.0
2015-May-03 01:34N 35°38' E 139°45'0 0.0
2015-May-03 00:33N 35°38' E 139°45'0 0.0
2015-May-02 23:33N 35°38' E 139°45'0 0.0
2015-May-02 22:33N 35°38' E 139°45'0 0.0
2015-May-02 21:33N 35°38' E 139°45'0 0.0
2015-May-02 20:33N 35°38' E 139°45'0 0.0
2015-May-02 19:34N 35°38' E 139°45'0 0.0
2015-May-02 18:33N 35°38' E 139°45'0 0.0
2015-May-02 17:34N 35°38' E 139°45'0 0.0
2015-May-02 16:33N 35°38' E 139°45'0 0.0
2015-May-02 15:34N 35°38' E 139°45'0 0.0
2015-May-02 14:33N 35°38' E 139°45'0 0.0
2015-May-02 13:33N 35°38' E 139°45'0 0.0
2015-May-02 12:33N 35°38' E 139°45'0 0.0
2015-May-02 11:33N 35°38' E 139°45'0 0.0
2015-May-02 10:33N 35°38' E 139°45'0 0.0
2015-May-02 09:34N 35°38' E 139°45'0 0.0
2015-May-02 08:34N 35°38' E 139°45'0 0.0
2015-May-02 07:33N 35°38' E 139°45'0 0.0
2015-May-02 06:34N 35°38' E 139°45'0 0.0
2015-May-02 05:33N 35°38' E 139°45'0 0.0
2015-May-02 04:33N 35°38' E 139°45'0 0.0
2015-May-02 03:33N 35°38' E 139°45'2 1.8
2015-May-02 02:34N 35°37' E 139°46'0 0.2
2015-May-02 01:34N 35°37' E 139°46'2 1.6
2015-May-02 00:33N 35°38' E 139°45'0 0.0
2015-May-01 23:34N 35°38' E 139°45'0 0.0
2015-May-01 22:33N 35°38' E 139°45'0 0.0
2015-May-01 21:34N 35°38' E 139°45'0 0.0
2015-May-01 20:34N 35°38' E 139°45'0 0.0
2015-May-01 19:33N 35°38' E 139°45'0 0.0
2015-May-01 18:33N 35°38' E 139°45'0 0.0
2015-May-01 17:33N 35°38' E 139°45'0 0.0
2015-May-01 16:33N 35°38' E 139°45'0 0.0
2015-May-01 15:33N 35°38' E 139°45'0 0.0
2015-May-01 14:33N 35°38' E 139°45'0 0.0
2015-May-01 13:34N 35°38' E 139°45'2 2.2
2015-May-01 12:34N 35°36' E 139°47'1 0.7
2015-May-01 11:32N 35°36' E 139°48'0 0.2
2015-May-01 10:33N 35°36' E 139°47'1 0.8
2015-May-01 09:34N 35°35' E 139°47'1 0.8
2015-May-01 08:33N 35°36' E 139°46'2 2.2
2015-May-01 07:33N 35°38' E 139°45'0 0.0
2015-May-01 06:33N 35°38' E 139°45'0 0.0
2015-May-01 05:34N 35°38' E 139°45'0 0.0
2015-May-01 02:24N 35°38' E 139°45'0 0.0
2015-May-01 01:34N 35°38' E 139°45'0 0.0
2015-May-01 00:34N 35°38' E 139°45'0 0.0
2015-Apr-30 23:33N 35°38' E 139°45'2 1.6
2015-Apr-30 22:33N 35°37' E 139°46'4 3.8
2015-Apr-30 21:33N 35°34' E 139°49'3 3.2
2015-Apr-30 20:31N 35°37' E 139°47'2 1.9
2015-Apr-30 19:34N 35°38' E 139°45'0 0.0
2015-Apr-30 18:34N 35°38' E 139°45'0 0.0
2015-Apr-30 17:34N 35°38' E 139°45'0 0.0
2015-Apr-30 16:33N 35°38' E 139°45'0 0.0
2015-Apr-30 15:34N 35°38' E 139°45'0 0.0
2015-Apr-30 14:33N 35°38' E 139°45'0 0.0
2015-Apr-30 13:33N 35°38' E 139°45'0 0.0
2015-Apr-30 12:33N 35°38' E 139°45'0 0.0
2015-Apr-30 11:34N 35°38' E 139°45'0 0.0
2015-Apr-30 10:34N 35°38' E 139°45'0 0.0
2015-Apr-30 09:33N 35°38' E 139°45'0 0.0
2015-Apr-30 08:34N 35°38' E 139°45'0 0.0
2015-Apr-30 07:33N 35°38' E 139°45'0 0.0
2015-Apr-30 06:33N 35°38' E 139°45'0 0.0
2015-Apr-30 05:34N 35°38' E 139°45'0 0.0
2015-Apr-30 04:33N 35°38' E 139°45'0 0.0
2015-Apr-30 03:33N 35°38' E 139°45'0 0.0
2015-Apr-30 02:33N 35°38' E 139°45'0 0.0
2015-Apr-30 01:33N 35°38' E 139°45'0 0.0
2015-Apr-30 00:33N 35°38' E 139°45'0 0.0
2015-Apr-29 23:33N 35°38' E 139°46'0 0.0
2015-Apr-29 22:33N 35°38' E 139°45'0 0.0
2015-Apr-29 21:33N 35°38' E 139°45'0 0.0
2015-Apr-29 20:33N 35°38' E 139°45'0 0.0
2015-Apr-29 19:33N 35°38' E 139°45'0 0.0
2015-Apr-29 18:33N 35°38' E 139°45'0 0.0
2015-Apr-29 17:34N 35°38' E 139°45'0 0.0
2015-Apr-29 16:33N 35°38' E 139°45'0 0.0
2015-Apr-29 15:33N 35°38' E 139°45'0 0.0
2015-Apr-29 14:34N 35°38' E 139°45'0 0.0
2015-Apr-29 13:33N 35°38' E 139°45'0 0.0
2015-Apr-29 12:33N 35°38' E 139°45'0 0.0
2015-Apr-29 11:34N 35°38' E 139°45'0 0.0
2015-Apr-29 10:33N 35°38' E 139°45'0 0.0
2015-Apr-29 09:34N 35°38' E 139°45'0 0.0
2015-Apr-29 08:33N 35°38' E 139°45'0 0.0
2015-Apr-29 07:33N 35°38' E 139°45'0 0.0
2015-Apr-29 06:33N 35°38' E 139°45'2 2.3
2015-Apr-29 05:33N 35°36' E 139°47'2 2.3
2015-Apr-29 04:33N 35°38' E 139°45'0 0.0
2015-Apr-29 03:33N 35°38' E 139°45'0 0.0
2015-Apr-29 02:34N 35°38' E 139°45'0 0.0
2015-Apr-29 01:33N 35°38' E 139°45'0 0.0
2015-Apr-29 00:34N 35°38' E 139°45'0 0.0
2015-Apr-28 23:33N 35°38' E 139°45'0 0.5
2015-Apr-28 22:33N 35°38' E 139°46'4 3.9
2015-Apr-28 21:33N 35°35' E 139°48'2 2.3
2015-Apr-28 20:33N 35°36' E 139°46'2 2.2
2015-Apr-28 19:34N 35°38' E 139°45'0 0.0
2015-Apr-28 18:34N 35°38' E 139°45'0 0.0
2015-Apr-28 17:33N 35°38' E 139°45'0 0.0
2015-Apr-28 16:33N 35°38' E 139°45'0 0.0
2015-Apr-28 15:33N 35°38' E 139°45'0 0.0
2015-Apr-28 14:33N 35°38' E 139°45'0 0.0
2015-Apr-28 13:34N 35°38' E 139°45'0 0.0
2015-Apr-28 12:33N 35°38' E 139°45'0 0.0
2015-Apr-28 11:34N 35°38' E 139°45'0 0.0
2015-Apr-28 10:33N 35°38' E 139°45'0 0.0
2015-Apr-28 09:33N 35°38' E 139°45'0 0.0
2015-Apr-28 08:33N 35°38' E 139°45'0 0.0
2015-Apr-28 07:34N 35°38' E 139°45'0 0.0
2015-Apr-28 06:33N 35°38' E 139°45'0 0.0
2015-Apr-28 05:33N 35°38' E 139°45'0 0.0
2015-Apr-28 04:33N 35°38' E 139°45'0 0.2
2015-Apr-28 03:33N 35°38' E 139°46'0 0.4
2015-Apr-28 02:33N 35°39' E 139°46'0 0.0
2015-Apr-28 01:33N 35°39' E 139°46'0 0.3
2015-Apr-28 00:33N 35°38' E 139°45'0 0.0
2015-Apr-27 23:33N 35°38' E 139°45'0 0.0
2015-Apr-27 22:34N 35°38' E 139°45'0 0.0
2015-Apr-27 21:33N 35°38' E 139°45'0 0.0
2015-Apr-27 20:33N 35°38' E 139°45'0 0.0
2015-Apr-27 19:33N 35°38' E 139°45'0 0.0
2015-Apr-27 18:33N 35°38' E 139°45'0 0.0
2015-Apr-27 17:34N 35°38' E 139°45'0 0.0
2015-Apr-27 16:33N 35°38' E 139°45'0 0.0
2015-Apr-27 15:34N 35°38' E 139°45'0 0.0
2015-Apr-27 14:34N 35°38' E 139°45'0 0.0
2015-Apr-27 13:34N 35°38' E 139°45'0 0.0
2015-Apr-27 12:33N 35°38' E 139°45'0 0.0
2015-Apr-27 11:33N 35°38' E 139°45'0 0.0
2015-Apr-27 10:33N 35°38' E 139°45'0 0.0
2015-Apr-27 09:33N 35°38' E 139°45'0 0.0
2015-Apr-27 08:33N 35°38' E 139°45'0 0.3
2015-Apr-27 07:33N 35°38' E 139°46'0 0.3
2015-Apr-27 06:33N 35°38' E 139°45'0 0.0
2015-Apr-27 05:33N 35°38' E 139°45'0 0.0
2015-Apr-27 04:34N 35°38' E 139°45'0 0.0
2015-Apr-27 03:33N 35°38' E 139°45'0 0.0
2015-Apr-27 02:33N 35°38' E 139°45'0 0.0
2015-Apr-27 01:31N 35°38' E 139°45'0 0.0
2015-Apr-27 00:34N 35°38' E 139°45'0 0.0
2015-Apr-26 23:33N 35°38' E 139°45'3 3.1
2015-Apr-26 22:34N 35°35' E 139°47'0 0.3
2015-Apr-26 21:33N 35°35' E 139°47'3 3.2
2015-Apr-26 20:34N 35°38' E 139°45'0 0.0
2015-Apr-26 19:33N 35°38' E 139°45'0 0.0
2015-Apr-26 18:34N 35°38' E 139°45'0 0.0
2015-Apr-26 17:34N 35°38' E 139°45'0 0.0
2015-Apr-26 16:33N 35°38' E 139°45'0 0.0
2015-Apr-26 15:33N 35°38' E 139°45'  

Dump ship's entire track history